x

Pt Arena - 19nm North Of Point Arena, Ca (46014) Wave Buoy

6:50am - Fri 22nd May 2015 All times are PDT. -7 hours from GMT.

  • Sig Wave height 4.3ft
  • Peak Period 12s
  • Average Period 7s
  • Wind
    7mph
  • Sea Temp 53°f
  • Sea Pressure 1016.2mb
  • Pt Arena - 19nm North Of Point Arena, Ca
  • Pt Arena - 19nm North Of Point Arena, Ca

More Historic Weather Station data

Upgrade to MSW Pro to gain access to the past 30 days of data for over 8000 Wavebouys and Weather Stations around the globe.

Join Pro

Comparision Forecast

View Surf forecast
   
Fri 05/22 6:50am 4.5ft 12s 7s 7
mph
1016.2mb 53f
5:50am 4ft 11s 7s 7 9 mph 1016mb 53f
4:50am 4ft 10s 7s 7 9 mph 1015.7mb 53f
3:50am 3.5ft 11s 7s 7
mph
1015.5mb 53f
2:50am 4ft 11s 7s  -  2 mph 1015.6mb 53f
1:50am 3.5ft 11s 7s 4
mph
1015.7mb 53f
12:50am 3.5ft 11s 8s 2
mph
1015.8mb 53f
Thu 05/21 11:50pm 4ft 11s 9s  -  2 mph 1015.7mb 53f
10:50pm 3.5ft 11s 8s 2
mph
1015.6mb 53f
9:50pm 3.5ft 11s 9s 4
mph
1015.3mb 53f
8:50pm 3.5ft 11s 8s 4 7 mph 1015mb 53f
7:50pm 3.5ft 12s 8s 2 4 mph 1014.7mb 54f
6:50pm 4ft 13s 8s 4 7 mph 1014.4mb 54f
5:50pm 3.5ft 12s 8s 7
mph
1014.3mb 54f
4:50pm 4ft 12s 8s 7
mph
1014.3mb 54f
3:50pm 3.5ft 14s 8s 7 9 mph 1014.2mb 54f
2:50pm 4ft 13s 8s 4 7 mph 1014.5mb 54f
1:50pm 3.5ft 13s 7s 4
mph
1014.7mb 54f
12:50pm 4ft 13s 8s 7
mph
1014.8mb 54f
11:50am 3.5ft 13s 7s 4
mph
1014.6mb 53f
10:50am 3.5ft 13s 7s 4
mph
1014.3mb 53f
9:50am 3.5ft 13s 7s 4
mph
1014.4mb 52f
8:50am 3.5ft 13s 7s 4
mph
1014.4mb 52f
7:50am 3.5ft 13s 7s 4
mph
1014.3mb 52f
6:50am 3.5ft 13s 7s 4
mph
1014.2mb 52f
5:50am 3.5ft 13s 7s 2 4 mph 1013.8mb 52f
4:50am 3ft 14s 6s 2
mph
1013.8mb 52f
3:50am 3.5ft 14s 7s  -  2 mph 1013.7mb 52f
2:50am 3.5ft 14s 7s 2 4 mph 1013.7mb 52f
1:50am 3.5ft 14s 7s 2
mph
1014mb 52f
12:50am 3.5ft 14s 7s 2 4 mph 1014.2mb 52f
Wed 05/20 11:50pm 3.5ft 14s 7s 2
mph
1014.4mb 52f
10:50pm 3.5ft 15s 6s 2
mph
1014.8mb 52f
9:50pm 3.5ft 15s 6s 2 4 mph 1014.6mb 52f
8:50pm 4ft 14s 7s 4
mph
1014.3mb 52f
7:50pm 3.5ft 15s 6s 7 9 mph 1014.1mb 52f
6:50pm 3.5ft 15s 6s 7
mph
1013.8mb 53f
5:50pm 3.5ft 15s 6s 4 7 mph 1013.9mb 53f
4:50pm 3.5ft 15s 6s 7 9 mph 1014mb 53f
3:50pm 3.5ft 11s 6s 4
mph
1014.6mb 53f
2:50pm 3.5ft 11s 6s 4
mph
1014.7mb 52f
1:50pm 3.5ft 11s 6s 4 7 mph 1014.8mb 52f
12:50pm 4ft 11s 6s 7
mph
1015mb 52f
11:50am 4.5ft 11s 6s 7 9 mph 1015.2mb 52f
10:50am 4.5ft 11s 6s 9 11 mph 1015.1mb 52f
9:50am 4.5ft 10s 5s 11 13 mph 1015.1mb 51f
8:50am 4.5ft 5s 5s 13 16 mph 1014.7mb 52f
7:50am 4.5ft 11s 5s 16 18 mph 1014.5mb 52f
6:50am 5ft 10s 5s 16 18 mph 1014.3mb 52f
5:50am 5ft 11s 5s 13 16 mph 1014.2mb 52f
4:50am 5ft 6s 5s 13 18 mph 1014.3mb 52f
3:50am 5ft 11s 6s 13 18 mph 1014.6mb 52f
2:50am 5ft 11s 6s 16 18 mph 1014.9mb 52f
1:50am 5ft 6s 6s 7 9 mph 1015.5mb 52f
12:50am 5ft 6s 6s 9 11 mph 1015.8mb 52f
Tue 05/19 11:50pm 5ft 6s 5s 9
mph
1016.1mb 52f
10:50pm 5ft 6s 5s 9 13 mph 1016.6mb 52f
9:50pm 5ft 11s 5s 9 11 mph 1016.8mb 52f
8:50pm 5ft 11s 5s 11 13 mph 1016.6mb 52f
7:50pm 4.5ft 11s 6s 13 16 mph 1016.5mb 52f
6:50pm 4.5ft 11s 6s 13 16 mph 1016.9mb 52f
5:50pm 4.5ft 11s 6s 13 16 mph 1017.4mb 52f
4:50pm 4.5ft 11s 6s 11 13 mph 1017.7mb 52f
3:50pm 4.5ft 12s 6s 11 13 mph 1018.3mb 52f
2:50pm 5ft 12s 6s 11 13 mph 1018.8mb 52f
1:50pm 4.5ft 11s 6s 9 11 mph 1019.3mb 52f
12:50pm 5ft 12s 6s 13 16 mph 1019.5mb 52f
11:50am 4.5ft 11s 6s 13 18 mph 1019.6mb 52f
10:50am 4.5ft 12s 5s 13 16 mph 1019.8mb 51f
9:50am 5ft 12s 6s 16 18 mph 1019.7mb 51f
8:50am 5ft 12s 6s 13 18 mph 1019.5mb 51f
7:50am 5ft 11s 6s 13 16 mph 1019.4mb 51f
6:50am 5.5ft 12s 6s 16 20 mph 1019.2mb 52f
5:50am 5ft 12s 6s 16 18 mph 1018.8mb 52f
4:50am 5.5ft 12s 6s 16 20 mph 1018.8mb 52f
3:50am 5ft 12s 6s 20 22 mph 1018.8mb 52f
2:50am 5ft 13s 7s 13 16 mph 1019.1mb 52f
1:50am 5ft 13s 7s 7
mph
1019.2mb 52f
12:50am 5ft 11s 6s 7 9 mph 1019.2mb 52f
Mon 05/18 11:50pm 6ft 6s 6s 11 13 mph 1018.9mb 52f
10:50pm 6ft 11s 5s 18 22 mph 1018.5mb 53f
9:50pm 6.5ft 13s 6s 16 18 mph 1019.2mb 53f
8:50pm 5ft 13s 6s 16 18 mph 1019.1mb 53f
7:50pm 5ft 12s 6s 11 16 mph 1019.2mb 53f
6:50pm 5ft 13s 6s 9 11 mph 1019.2mb 52f
5:50pm 5ft 13s 6s 9 11 mph 1019.5mb 53f
4:50pm 4.5ft 13s 6s 11
mph
1019.5mb 53f
3:50pm 5ft 13s 6s 13 16 mph 1019.5mb 53f